sensor_id;sensor_type;location;lat;lon;timestamp;temperature;humidity
37874;DHT22;23709;48.078;11.684;2022-12-11T07:07:32;-2.60;99.90
37874;DHT22;23709;48.078;11.684;2022-12-11T07:10:05;-2.60;99.90
37874;DHT22;23709;48.078;11.684;2022-12-11T07:12:39;-2.50;99.90
37874;DHT22;23709;48.078;11.684;2022-12-11T07:15:11;-2.50;99.90
37874;DHT22;23709;48.078;11.684;2022-12-11T07:17:44;-2.40;99.90
37874;DHT22;23709;48.078;11.684;2022-12-11T07:20:16;-2.00;99.90
37874;DHT22;23709;48.078;11.684;2022-12-11T07:22:49;-1.80;99.90
37874;DHT22;23709;48.078;11.684;2022-12-11T07:25:21;-1.70;99.90
37874;DHT22;23709;48.078;11.684;2022-12-11T07:27:53;-1.60;99.90
37874;DHT22;23709;48.078;11.684;2022-12-11T07:30:25;-1.40;99.90
37874;DHT22;23709;48.078;11.684;2022-12-11T07:32:57;-1.40;99.90
37874;DHT22;23709;48.078;11.684;2022-12-11T07:35:29;-1.50;99.90
37874;DHT22;23709;48.078;11.684;2022-12-11T07:38:01;-1.50;99.90
37874;DHT22;23709;48.078;11.684;2022-12-11T07:40:34;-1.50;99.90
37874;DHT22;23709;48.078;11.684;2022-12-11T07:43:06;-1.50;99.90
37874;DHT22;23709;48.078;11.684;2022-12-11T07:45:38;-1.50;99.90
37874;DHT22;23709;48.078;11.684;2022-12-11T07:48:10;-1.60;99.90
37874;DHT22;23709;48.078;11.684;2022-12-11T07:50:43;-1.50;99.90
37874;DHT22;23709;48.078;11.684;2022-12-11T07:53:15;-1.50;99.90
37874;DHT22;23709;48.078;11.684;2022-12-11T07:55:47;-1.50;99.90
37874;DHT22;23709;48.078;11.684;2022-12-11T07:58:20;-1.40;99.90
37874;DHT22;23709;48.078;11.684;2022-12-11T08:00:52;-1.50;99.90
37874;DHT22;23709;48.078;11.684;2022-12-11T08:03:26;-1.40;99.90
37874;DHT22;23709;48.078;11.684;2022-12-11T08:05:58;-1.50;99.90
37874;DHT22;23709;48.078;11.684;2022-12-11T08:08:30;-1.50;99.90
37874;DHT22;23709;48.078;11.684;2022-12-11T08:11:04;-1.40;99.90
37874;DHT22;23709;48.078;11.684;2022-12-11T08:13:36;-1.20;99.90
37874;DHT22;23709;48.078;11.684;2022-12-11T08:16:12;-1.30;99.90
37874;DHT22;23709;48.078;11.684;2022-12-11T08:18:45;-1.30;99.90
37874;DHT22;23709;48.078;11.684;2022-12-11T08:21:23;-1.30;99.90
37874;DHT22;23709;48.078;11.684;2022-12-11T08:23:56;-1.40;99.90
37874;DHT22;23709;48.078;11.684;2022-12-11T08:26:29;-1.30;99.90
37874;DHT22;23709;48.078;11.684;2022-12-11T08:29:04;-1.30;99.90
37874;DHT22;23709;48.078;11.684;2022-12-11T08:31:38;-1.30;99.90
37874;DHT22;23709;48.078;11.684;2022-12-11T08:34:10;-1.30;99.90
37874;DHT22;23709;48.078;11.684;2022-12-11T08:36:44;-1.30;99.90
37874;DHT22;23709;48.078;11.684;2022-12-11T08:39:16;-1.20;99.90
37874;DHT22;23709;48.078;11.684;2022-12-11T08:41:49;-1.20;99.90
37874;DHT22;23709;48.078;11.684;2022-12-11T08:44:22;-1.20;99.90
37874;DHT22;23709;48.078;11.684;2022-12-11T08:46:55;-1.20;99.90
37874;DHT22;23709;48.078;11.684;2022-12-11T08:49:28;-1.30;99.90
37874;DHT22;23709;48.078;11.684;2022-12-11T08:52:06;-1.20;99.90
37874;DHT22;23709;48.078;11.684;2022-12-11T08:54:38;-1.10;99.90
37874;DHT22;23709;48.078;11.684;2022-12-11T08:57:10;-0.90;99.90
37874;DHT22;23709;48.078;11.684;2022-12-11T08:59:44;-0.80;99.90
37874;DHT22;23709;48.078;11.684;2022-12-11T09:02:17;-0.80;99.90
37874;DHT22;23709;48.078;11.684;2022-12-11T09:04:49;-0.90;99.90
37874;DHT22;23709;48.078;11.684;2022-12-11T09:07:21;-1.00;99.90
37874;DHT22;23709;48.078;11.684;2022-12-11T09:09:54;-1.10;99.90
37874;DHT22;23709;48.078;11.684;2022-12-11T09:12:26;-1.00;99.90
37874;DHT22;23709;48.078;11.684;2022-12-11T09:14:58;-1.00;99.90
37874;DHT22;23709;48.078;11.684;2022-12-11T09:17:32;-1.10;99.90
37874;DHT22;23709;48.078;11.684;2022-12-11T09:20:05;-1.00;99.90
37874;DHT22;23709;48.078;11.684;2022-12-11T09:22:37;-0.90;99.90
37874;DHT22;23709;48.078;11.684;2022-12-11T09:25:11;-0.80;99.90
37874;DHT22;23709;48.078;11.684;2022-12-11T09:27:43;-0.60;99.90
37874;DHT22;23709;48.078;11.684;2022-12-11T09:30:16;-0.40;99.90
37874;DHT22;23709;48.078;11.684;2022-12-11T09:32:48;-0.40;99.90
37874;DHT22;23709;48.078;11.684;2022-12-11T09:35:20;-0.40;99.90
37874;DHT22;23709;48.078;11.684;2022-12-11T09:37:52;-0.30;99.90
37874;DHT22;23709;48.078;11.684;2022-12-11T09:40:24;-0.30;99.90
37874;DHT22;23709;48.078;11.684;2022-12-11T09:43:02;-0.40;99.90
37874;DHT22;23709;48.078;11.684;2022-12-11T09:45:37;-0.60;99.90
37874;DHT22;23709;48.078;11.684;2022-12-11T09:48:10;-0.70;99.90
37874;DHT22;23709;48.078;11.684;2022-12-11T09:50:44;-0.60;99.90
37874;DHT22;23709;48.078;11.684;2022-12-11T09:53:35;-0.50;99.90
37874;DHT22;23709;48.078;11.684;2022-12-11T09:56:23;-0.40;99.90
37874;DHT22;23709;48.078;11.684;2022-12-11T10:07:50;-0.50;99.90
37874;DHT22;23709;48.078;11.684;2022-12-11T10:13:13;-0.50;99.90
37874;DHT22;23709;48.078;11.684;2022-12-11T10:15:55;-0.50;99.90
37874;DHT22;23709;48.078;11.684;2022-12-11T10:18:31;-0.60;99.90
37874;DHT22;23709;48.078;11.684;2022-12-11T10:21:05;-0.60;99.90
37874;DHT22;23709;48.078;11.684;2022-12-11T10:23:43;-0.60;99.90
37874;DHT22;23709;48.078;11.684;2022-12-11T10:26:19;-0.50;99.90
37874;DHT22;23709;48.078;11.684;2022-12-11T10:28:51;-0.50;99.90
37874;DHT22;23709;48.078;11.684;2022-12-11T10:34:36;-0.50;99.90
37874;DHT22;23709;48.078;11.684;2022-12-11T10:37:09;-0.60;99.90
37874;DHT22;23709;48.078;11.684;2022-12-11T10:39:42;-0.60;99.90
37874;DHT22;23709;48.078;11.684;2022-12-11T10:42:22;-0.60;99.90
37874;DHT22;23709;48.078;11.684;2022-12-11T10:45:00;-0.50;99.90
37874;DHT22;23709;48.078;11.684;2022-12-11T10:47:33;-0.50;99.90
37874;DHT22;23709;48.078;11.684;2022-12-11T10:50:05;-0.40;99.90
37874;DHT22;23709;48.078;11.684;2022-12-11T10:52:42;-0.40;99.90
37874;DHT22;23709;48.078;11.684;2022-12-11T10:55:32;-0.30;99.90
37874;DHT22;23709;48.078;11.684;2022-12-11T10:58:17;-0.30;99.90
37874;DHT22;23709;48.078;11.684;2022-12-11T11:01:04;-0.30;99.90
37874;DHT22;23709;48.078;11.684;2022-12-11T11:03:50;-0.40;99.90
37874;DHT22;23709;48.078;11.684;2022-12-11T11:06:24;-0.40;99.90
37874;DHT22;23709;48.078;11.684;2022-12-11T11:08:59;-0.40;99.90
37874;DHT22;23709;48.078;11.684;2022-12-11T11:11:36;-0.30;99.90
37874;DHT22;23709;48.078;11.684;2022-12-11T11:14:19;-0.20;99.90
37874;DHT22;23709;48.078;11.684;2022-12-11T11:16:55;-0.10;99.90
37874;DHT22;23709;48.078;11.684;2022-12-11T11:19:32;-0.10;99.90
37874;DHT22;23709;48.078;11.684;2022-12-11T11:22:14;-0.20;99.90
37874;DHT22;23709;48.078;11.684;2022-12-11T11:24:57;-0.20;99.90
37874;DHT22;23709;48.078;11.684;2022-12-11T11:27:34;-0.30;99.90
37874;DHT22;23709;48.078;11.684;2022-12-11T11:30:23;-0.30;99.90
37874;DHT22;23709;48.078;11.684;2022-12-11T11:33:01;-0.40;99.90
37874;DHT22;23709;48.078;11.684;2022-12-11T11:35:35;-0.40;99.90
37874;DHT22;23709;48.078;11.684;2022-12-11T19:13:59;-2.80;99.90
37874;DHT22;23709;48.078;11.684;2022-12-11T19:16:37;-2.90;99.90
37874;DHT22;23709;48.078;11.684;2022-12-11T19:19:16;-2.80;99.90
37874;DHT22;23709;48.078;11.684;2022-12-11T19:21:49;-2.70;99.90
37874;DHT22;23709;48.078;11.684;2022-12-11T19:24:22;-2.60;99.90
37874;DHT22;23709;48.078;11.684;2022-12-11T19:26:55;-2.60;99.90
37874;DHT22;23709;48.078;11.684;2022-12-11T19:29:30;-2.50;99.90
37874;DHT22;23709;48.078;11.684;2022-12-11T19:32:05;-2.50;99.90
37874;DHT22;23709;48.078;11.684;2022-12-11T19:34:38;-2.40;99.90
37874;DHT22;23709;48.078;11.684;2022-12-11T19:37:11;-2.40;99.90
37874;DHT22;23709;48.078;11.684;2022-12-11T19:39:43;-2.30;99.90
37874;DHT22;23709;48.078;11.684;2022-12-11T19:42:15;-2.20;99.90
37874;DHT22;23709;48.078;11.684;2022-12-11T19:44:47;-2.30;99.90
37874;DHT22;23709;48.078;11.684;2022-12-11T19:47:19;-2.20;99.90
37874;DHT22;23709;48.078;11.684;2022-12-11T19:49:51;-2.10;99.90
37874;DHT22;23709;48.078;11.684;2022-12-11T19:52:23;-2.10;99.90
37874;DHT22;23709;48.078;11.684;2022-12-11T19:55:00;-2.00;99.90
37874;DHT22;23709;48.078;11.684;2022-12-11T19:57:33;-2.00;99.90
37874;DHT22;23709;48.078;11.684;2022-12-11T20:00:06;-2.00;99.90
